sensor_id;sensor_type;location;lat;lon;timestamp;pressure;altitude;pressure_sealevel;temperature;humidity
23241;BME280;11789;53.482;9.862;2023-04-15T00:01:20;101058.22;;;7.36;100.00
23241;BME280;11789;53.482;9.862;2023-04-15T00:03:46;101056.44;;;7.35;100.00
23241;BME280;11789;53.482;9.862;2023-04-15T00:06:12;101044.44;;;7.34;100.00
23241;BME280;11789;53.482;9.862;2023-04-15T00:08:38;101046.13;;;7.32;100.00
23241;BME280;11789;53.482;9.862;2023-04-15T00:11:04;101047.84;;;7.31;100.00
23241;BME280;11789;53.482;9.862;2023-04-15T00:13:30;101045.22;;;7.29;100.00
23241;BME280;11789;53.482;9.862;2023-04-15T00:15:58;101039.19;;;7.27;100.00
23241;BME280;11789;53.482;9.862;2023-04-15T00:18:23;101043.47;;;7.27;100.00
23241;BME280;11789;53.482;9.862;2023-04-15T00:20:49;101040.91;;;7.25;100.00
23241;BME280;11789;53.482;9.862;2023-04-15T00:23:15;101034.91;;;7.25;100.00
23241;BME280;11789;53.482;9.862;2023-04-15T00:25:40;101034.00;;;7.23;100.00
23241;BME280;11789;53.482;9.862;2023-04-15T00:28:06;101043.41;;;7.21;100.00
23241;BME280;11789;53.482;9.862;2023-04-15T00:30:32;101037.34;;;7.19;100.00
23241;BME280;11789;53.482;9.862;2023-04-15T00:32:59;101040.75;;;7.15;100.00
23241;BME280;11789;53.482;9.862;2023-04-15T00:35:26;101029.50;;;7.10;100.00
23241;BME280;11789;53.482;9.862;2023-04-15T00:37:52;101026.09;;;7.11;100.00
23241;BME280;11789;53.482;9.862;2023-04-15T00:40:18;101029.50;;;7.10;100.00
23241;BME280;11789;53.482;9.862;2023-04-15T00:42:46;101029.50;;;7.10;100.00
23241;BME280;11789;53.482;9.862;2023-04-15T00:45:11;101032.97;;;7.13;100.00
23241;BME280;11789;53.482;9.862;2023-04-15T00:47:38;101021.81;;;7.11;100.00
23241;BME280;11789;53.482;9.862;2023-04-15T00:50:06;101028.62;;;7.09;100.00
23241;BME280;11789;53.482;9.862;2023-04-15T00:52:32;101026.87;;;7.05;100.00
23241;BME280;11789;53.482;9.862;2023-04-15T00:54:59;101028.59;;;7.06;100.00
23241;BME280;11789;53.482;9.862;2023-04-15T00:57:27;101022.63;;;7.09;100.00
23241;BME280;11789;53.482;9.862;2023-04-15T00:59:54;101024.38;;;7.11;100.00
23241;BME280;11789;53.482;9.862;2023-04-15T01:02:21;101022.59;;;7.07;100.00
23241;BME280;11789;53.482;9.862;2023-04-15T01:04:47;101023.37;;;7.01;100.00
23241;BME280;11789;53.482;9.862;2023-04-15T01:07:13;101025.06;;;6.99;100.00
23241;BME280;11789;53.482;9.862;2023-04-15T01:09:39;101026.75;;;6.99;100.00
23241;BME280;11789;53.482;9.862;2023-04-15T01:12:06;101031.03;;;6.98;100.00
23241;BME280;11789;53.482;9.862;2023-04-15T01:14:33;101029.28;;;6.97;100.00
23241;BME280;11789;53.482;9.862;2023-04-15T01:16:58;101024.22;;;7.00;100.00
23241;BME280;11789;53.482;9.862;2023-04-15T01:19:24;101024.16;;;6.99;100.00
23241;BME280;11789;53.482;9.862;2023-04-15T01:21:50;101018.22;;;7.00;100.00
23241;BME280;11789;53.482;9.862;2023-04-15T01:24:17;101020.81;;;7.01;100.00
23241;BME280;11789;53.482;9.862;2023-04-15T01:26:44;101015.72;;;7.05;100.00
23241;BME280;11789;53.482;9.862;2023-04-15T01:29:11;101014.78;;;6.99;100.00
23241;BME280;11789;53.482;9.862;2023-04-15T01:31:36;101013.88;;;6.97;100.00
23241;BME280;11789;53.482;9.862;2023-04-15T01:34:02;101010.37;;;6.92;100.00
23241;BME280;11789;53.482;9.862;2023-04-15T01:36:27;101011.22;;;6.91;100.00
23241;BME280;11789;53.482;9.862;2023-04-15T01:38:55;101008.56;;;6.88;100.00
23241;BME280;11789;53.482;9.862;2023-04-15T01:41:27;101001.72;;;6.87;100.00
23241;BME280;11789;53.482;9.862;2023-04-15T01:43:53;100997.41;;;6.86;100.00
23241;BME280;11789;53.482;9.862;2023-04-15T01:46:21;101008.50;;;6.84;100.00
23241;BME280;11789;53.482;9.862;2023-04-15T01:48:47;100995.63;;;6.82;100.00
23241;BME280;11789;53.482;9.862;2023-04-15T01:51:13;100993.06;;;6.82;100.00
23241;BME280;11789;53.482;9.862;2023-04-15T01:53:39;100996.47;;;6.81;100.00
23241;BME280;11789;53.482;9.862;2023-04-15T01:56:05;100987.91;;;6.81;100.00
23241;BME280;11789;53.482;9.862;2023-04-15T01:58:31;100983.66;;;6.83;100.00
23241;BME280;11789;53.482;9.862;2023-04-15T02:00:57;100982.78;;;6.82;100.00
23241;BME280;11789;53.482;9.862;2023-04-15T02:03:24;100978.50;;;6.81;100.00
23241;BME280;11789;53.482;9.862;2023-04-15T02:05:53;100976.78;;;6.82;100.00
23241;BME280;11789;53.482;9.862;2023-04-15T02:08:19;100983.66;;;6.83;100.00
23241;BME280;11789;53.482;9.862;2023-04-15T02:10:45;100986.28;;;6.86;100.00
23241;BME280;11789;53.482;9.862;2023-04-15T02:13:10;100994.78;;;6.83;100.00
23241;BME280;11789;53.482;9.862;2023-04-15T02:15:36;100987.16;;;6.88;100.00
23241;BME280;11789;53.482;9.862;2023-04-15T02:18:01;100995.78;;;6.90;100.00
23241;BME280;11789;53.482;9.862;2023-04-15T02:20:27;100991.44;;;6.87;100.00
23241;BME280;11789;53.482;9.862;2023-04-15T02:22:54;100993.16;;;6.88;100.00
23241;BME280;11789;53.482;9.862;2023-04-15T02:25:20;100989.75;;;6.89;100.00
23241;BME280;11789;53.482;9.862;2023-04-15T02:27:46;100986.34;;;6.90;100.00
23241;BME280;11789;53.482;9.862;2023-04-15T02:30:12;100976.06;;;6.90;100.00
23241;BME280;11789;53.482;9.862;2023-04-15T02:32:37;100979.47;;;6.89;100.00
23241;BME280;11789;53.482;9.862;2023-04-15T02:35:04;100987.22;;;6.92;100.00
23241;BME280;11789;53.482;9.862;2023-04-15T02:37:31;100988.09;;;6.91;100.00
23241;BME280;11789;53.482;9.862;2023-04-15T02:39:56;100988.06;;;6.90;100.00
23241;BME280;11789;53.482;9.862;2023-04-15T02:42:22;100989.75;;;6.89;100.00
23241;BME280;11789;53.482;9.862;2023-04-15T02:44:47;100992.34;;;6.91;100.00
23241;BME280;11789;53.482;9.862;2023-04-15T02:47:13;100991.50;;;6.90;100.00
23241;BME280;11789;53.482;9.862;2023-04-15T02:49:40;100986.31;;;6.89;100.00
23241;BME280;11789;53.482;9.862;2023-04-15T02:52:07;100982.87;;;6.88;100.00
23241;BME280;11789;53.482;9.862;2023-04-15T02:54:32;100976.00;;;6.87;100.00
23241;BME280;11789;53.482;9.862;2023-04-15T02:56:58;100983.72;;;6.86;100.00
23241;BME280;11789;53.482;9.862;2023-04-15T02:59:24;100975.09;;;6.84;100.00
23241;BME280;11789;53.482;9.862;2023-04-15T03:01:50;100988.00;;;6.87;100.00
23241;BME280;11789;53.482;9.862;2023-04-15T03:04:15;100982.00;;;6.88;100.00
23241;BME280;11789;53.482;9.862;2023-04-15T03:06:41;100982.84;;;6.85;100.00
23241;BME280;11789;53.482;9.862;2023-04-15T03:09:06;100981.09;;;6.84;100.00
23241;BME280;11789;53.482;9.862;2023-04-15T03:11:32;100981.09;;;6.84;100.00
23241;BME280;11789;53.482;9.862;2023-04-15T03:13:58;100982.00;;;6.86;100.00
23241;BME280;11789;53.482;9.862;2023-04-15T03:16:24;100981.97;;;6.85;100.00
23241;BME280;11789;53.482;9.862;2023-04-15T03:18:50;100979.47;;;6.89;100.00
23241;BME280;11789;53.482;9.862;2023-04-15T03:21:15;100986.37;;;6.92;100.00
23241;BME280;11789;53.482;9.862;2023-04-15T03:23:42;100975.22;;;6.90;100.00
23241;BME280;11789;53.482;9.862;2023-04-15T03:26:07;100974.38;;;6.91;100.00
23241;BME280;11789;53.482;9.862;2023-04-15T03:28:33;100974.38;;;6.92;100.00
23241;BME280;11789;53.482;9.862;2023-04-15T03:30:59;100979.53;;;6.92;100.00
23241;BME280;11789;53.482;9.862;2023-04-15T03:33:24;100977.81;;;6.94;100.00
23241;BME280;11789;53.482;9.862;2023-04-15T03:35:50;100972.66;;;6.90;100.00
23241;BME280;11789;53.482;9.862;2023-04-15T03:38:17;100976.94;;;6.91;100.00
23241;BME280;11789;53.482;9.862;2023-04-15T03:40:42;100978.59;;;6.89;100.00
23241;BME280;11789;53.482;9.862;2023-04-15T03:43:08;100978.66;;;6.90;100.00
23241;BME280;11789;53.482;9.862;2023-04-15T03:45:33;100982.00;;;6.88;100.00
23241;BME280;11789;53.482;9.862;2023-04-15T03:47:59;100979.44;;;6.86;100.00
23241;BME280;11789;53.482;9.862;2023-04-15T03:50:24;100979.44;;;6.86;100.00
23241;BME280;11789;53.482;9.862;2023-04-15T03:52:50;100978.59;;;6.89;100.00
23241;BME280;11789;53.482;9.862;2023-04-15T03:55:15;100977.72;;;6.88;100.00
23241;BME280;11789;53.482;9.862;2023-04-15T03:57:41;100970.88;;;6.89;100.00
23241;BME280;11789;53.482;9.862;2023-04-15T04:00:08;100972.59;;;6.88;100.00
23241;BME280;11789;53.482;9.862;2023-04-15T04:02:35;100979.44;;;6.88;100.00
23241;BME280;11789;53.482;9.862;2023-04-15T04:05:00;100973.44;;;6.87;100.00
23241;BME280;11789;53.482;9.862;2023-04-15T04:07:26;100977.72;;;6.88;100.00
23241;BME280;11789;53.482;9.862;2023-04-15T04:09:51;100973.47;;;6.89;100.00
23241;BME280;11789;53.482;9.862;2023-04-15T04:12:17;100976.03;;;6.89;100.00
23241;BME280;11789;53.482;9.862;2023-04-15T04:14:42;100977.81;;;6.91;100.00
23241;BME280;11789;53.482;9.862;2023-04-15T04:17:08;100978.66;;;6.90;100.00
23241;BME280;11789;53.482;9.862;2023-04-15T04:19:34;100978.66;;;6.92;100.00
23241;BME280;11789;53.482;9.862;2023-04-15T04:21:59;100986.44;;;6.95;100.00
23241;BME280;11789;53.482;9.862;2023-04-15T04:24:25;100984.72;;;6.95;100.00
23241;BME280;11789;53.482;9.862;2023-04-15T04:26:50;100983.81;;;6.92;100.00
23241;BME280;11789;53.482;9.862;2023-04-15T04:29:16;100992.44;;;6.95;100.00
23241;BME280;11789;53.482;9.862;2023-04-15T04:31:41;100994.16;;;6.98;100.00
23241;BME280;11789;53.482;9.862;2023-04-15T04:34:07;100992.44;;;6.97;100.00
23241;BME280;11789;53.482;9.862;2023-04-15T04:36:32;100984.72;;;6.95;100.00
23241;BME280;11789;53.482;9.862;2023-04-15T04:38:58;100989.87;;;6.95;100.00
23241;BME280;11789;53.482;9.862;2023-04-15T04:41:23;100987.22;;;6.92;100.00
23241;BME280;11789;53.482;9.862;2023-04-15T04:43:50;100992.31;;;6.89;100.00
23241;BME280;11789;53.482;9.862;2023-04-15T04:46:15;100989.72;;;6.88;100.00
23241;BME280;11789;53.482;9.862;2023-04-15T04:48:41;100986.28;;;6.86;100.00
23241;BME280;11789;53.482;9.862;2023-04-15T04:51:06;100981.12;;;6.86;100.00
23241;BME280;11789;53.482;9.862;2023-04-15T04:53:32;100970.81;;;6.84;100.00
23241;BME280;11789;53.482;9.862;2023-04-15T04:55:58;100975.94;;;6.84;100.00
23241;BME280;11789;53.482;9.862;2023-04-15T04:58:23;100988.00;;;6.85;100.00
23241;BME280;11789;53.482;9.862;2023-04-15T05:00:49;100990.56;;;6.87;100.00
23241;BME280;11789;53.482;9.862;2023-04-15T05:03:15;100988.88;;;6.87;100.00
23241;BME280;11789;53.482;9.862;2023-04-15T05:05:40;100990.59;;;6.88;100.00
23241;BME280;11789;53.482;9.862;2023-04-15T05:08:06;100993.16;;;6.88;100.00
23241;BME280;11789;53.482;9.862;2023-04-15T05:10:31;101000.06;;;6.91;100.00
23241;BME280;11789;53.482;9.862;2023-04-15T05:12:57;100993.22;;;6.91;100.00
23241;BME280;11789;53.482;9.862;2023-04-15T05:15:24;100999.22;;;6.92;100.00
23241;BME280;11789;53.482;9.862;2023-04-15T05:17:49;100990.72;;;6.96;100.00
23241;BME280;11789;53.482;9.862;2023-04-15T05:20:15;100986.44;;;6.95;100.00
23241;BME280;11789;53.482;9.862;2023-04-15T05:22:41;100990.75;;;6.97;100.00
23241;BME280;11789;53.482;9.862;2023-04-15T05:25:07;100991.59;;;6.96;100.00
23241;BME280;11789;53.482;9.862;2023-04-15T05:27:34;100993.31;;;6.97;100.00
23241;BME280;11789;53.482;9.862;2023-04-15T05:30:00;100999.34;;;6.99;100.00
23241;BME280;11789;53.482;9.862;2023-04-15T05:32:26;100995.09;;;7.01;100.00
23241;BME280;11789;53.482;9.862;2023-04-15T05:34:51;100985.69;;;7.02;100.00
23241;BME280;11789;53.482;9.862;2023-04-15T05:37:17;100975.38;;;7.00;100.00
23241;BME280;11789;53.482;9.862;2023-04-15T05:39:45;100982.22;;;7.00;100.00
23241;BME280;11789;53.482;9.862;2023-04-15T05:42:11;100995.09;;;7.01;100.00
23241;BME280;11789;53.482;9.862;2023-04-15T05:44:36;101001.09;;;7.02;100.00
23241;BME280;11789;53.482;9.862;2023-04-15T05:47:02;100997.66;;;7.01;100.00
23241;BME280;11789;53.482;9.862;2023-04-15T05:49:28;100995.97;;;7.02;100.00
23241;BME280;11789;53.482;9.862;2023-04-15T05:51:53;101003.72;;;7.05;100.00
23241;BME280;11789;53.482;9.862;2023-04-15T05:54:19;101000.31;;;7.06;100.00
23241;BME280;11789;53.482;9.862;2023-04-15T05:56:46;101003.72;;;7.05;100.00
23241;BME280;11789;53.482;9.862;2023-04-15T05:59:11;101003.75;;;7.07;100.00
23241;BME280;11789;53.482;9.862;2023-04-15T06:01:37;101010.66;;;7.11;100.00
23241;BME280;11789;53.482;9.862;2023-04-15T06:04:02;101009.81;;;7.12;100.00
23241;BME280;11789;53.482;9.862;2023-04-15T06:06:28;101010.69;;;7.14;100.00
23241;BME280;11789;53.482;9.862;2023-04-15T06:08:53;101012.41;;;7.13;100.00
23241;BME280;11789;53.482;9.862;2023-04-15T06:11:20;101019.25;;;7.13;100.00
23241;BME280;11789;53.482;9.862;2023-04-15T06:13:46;101011.53;;;7.13;100.00
23241;BME280;11789;53.482;9.862;2023-04-15T06:16:11;101000.41;;;7.14;100.00
23241;BME280;11789;53.482;9.862;2023-04-15T06:18:37;101011.53;;;7.13;100.00
23241;BME280;11789;53.482;9.862;2023-04-15T06:21:03;101012.41;;;7.12;100.00
23241;BME280;11789;53.482;9.862;2023-04-15T06:23:29;101022.69;;;7.13;100.00
23241;BME280;11789;53.482;9.862;2023-04-15T06:25:54;101025.31;;;7.15;100.00
23241;BME280;11789;53.482;9.862;2023-04-15T06:28:20;101023.53;;;7.12;100.00
23241;BME280;11789;53.482;9.862;2023-04-15T06:30:45;101024.41;;;7.13;100.00
23241;BME280;11789;53.482;9.862;2023-04-15T06:33:11;101020.97;;;7.12;100.00
23241;BME280;11789;53.482;9.862;2023-04-15T06:35:37;101033.03;;;7.15;100.00
23241;BME280;11789;53.482;9.862;2023-04-15T06:38:03;101032.19;;;7.16;100.00
23241;BME280;11789;53.482;9.862;2023-04-15T06:40:29;101035.62;;;7.18;100.00
23241;BME280;11789;53.482;9.862;2023-04-15T06:42:55;101044.19;;;7.18;100.00
23241;BME280;11789;53.482;9.862;2023-04-15T06:45:21;101038.19;;;7.18;100.00
23241;BME280;11789;53.482;9.862;2023-04-15T06:48:01;101041.63;;;7.18;100.00
23241;BME280;11789;53.482;9.862;2023-04-15T06:50:27;101043.34;;;7.18;100.00
23241;BME280;11789;53.482;9.862;2023-04-15T06:52:53;101033.06;;;7.18;100.00
23241;BME280;11789;53.482;9.862;2023-04-15T06:55:18;101035.62;;;7.19;100.00
23241;BME280;11789;53.482;9.862;2023-04-15T06:57:44;101028.81;;;7.20;100.00
23241;BME280;11789;53.482;9.862;2023-04-15T07:00:10;101031.38;;;7.20;100.00
23241;BME280;11789;53.482;9.862;2023-04-15T07:02:36;101033.13;;;7.21;100.00
23241;BME280;11789;53.482;9.862;2023-04-15T07:05:02;101043.44;;;7.24;100.00
23241;BME280;11789;53.482;9.862;2023-04-15T07:07:29;101041.75;;;7.26;100.00
23241;BME280;11789;53.482;9.862;2023-04-15T07:09:54;101050.34;;;7.28;100.00
23241;BME280;11789;53.482;9.862;2023-04-15T07:12:20;101053.78;;;7.28;100.00
23241;BME280;11789;53.482;9.862;2023-04-15T07:14:46;101055.50;;;7.28;100.00
23241;BME280;11789;53.482;9.862;2023-04-15T07:17:11;101055.50;;;7.28;100.00
23241;BME280;11789;53.482;9.862;2023-04-15T07:19:37;101063.22;;;7.28;100.00
23241;BME280;11789;53.482;9.862;2023-04-15T07:22:02;101065.84;;;7.31;100.00
23241;BME280;11789;53.482;9.862;2023-04-15T07:24:28;101068.44;;;7.33;100.00
23241;BME280;11789;53.482;9.862;2023-04-15T07:26:54;101059.84;;;7.32;100.00
23241;BME280;11789;53.482;9.862;2023-04-15T07:29:24;101055.62;;;7.36;100.00
23241;BME280;11789;53.482;9.862;2023-04-15T07:31:49;101061.66;;;7.38;100.00
23241;BME280;11789;53.482;9.862;2023-04-15T07:34:15;101059.94;;;7.40;100.00
23241;BME280;11789;53.482;9.862;2023-04-15T07:36:41;101063.44;;;7.42;100.00
23241;BME280;11789;53.482;9.862;2023-04-15T07:39:07;101066.00;;;7.42;100.00
23241;BME280;11789;53.482;9.862;2023-04-15T07:41:33;101063.47;;;7.45;100.00
23241;BME280;11789;53.482;9.862;2023-04-15T07:43:58;101073.81;;;7.46;100.00
23241;BME280;11789;53.482;9.862;2023-04-15T07:46:24;101074.69;;;7.48;100.00
23241;BME280;11789;53.482;9.862;2023-04-15T07:48:52;101069.59;;;7.51;100.00
23241;BME280;11789;53.482;9.862;2023-04-15T07:51:18;101071.31;;;7.52;100.00
23241;BME280;11789;53.482;9.862;2023-04-15T07:53:46;101070.47;;;7.53;100.00
23241;BME280;11789;53.482;9.862;2023-04-15T07:56:11;101068.75;;;7.54;100.00
23241;BME280;11789;53.482;9.862;2023-04-15T07:58:37;101080.75;;;7.53;100.00
23241;BME280;11789;53.482;9.862;2023-04-15T08:01:03;101076.47;;;7.52;100.00
23241;BME280;11789;53.482;9.862;2023-04-15T08:03:29;101084.22;;;7.56;100.00
23241;BME280;11789;53.482;9.862;2023-04-15T08:05:55;101086.84;;;7.59;100.00
23241;BME280;11789;53.482;9.862;2023-04-15T08:08:20;101085.16;;;7.61;100.00
23241;BME280;11789;53.482;9.862;2023-04-15T08:10:46;101096.28;;;7.60;100.00
23241;BME280;11789;53.482;9.862;2023-04-15T08:13:12;101092.00;;;7.60;100.00
23241;BME280;11789;53.482;9.862;2023-04-15T08:15:40;101086.03;;;7.61;100.00
23241;BME280;11789;53.482;9.862;2023-04-15T08:18:06;101093.69;;;7.60;100.00
23241;BME280;11789;53.482;9.862;2023-04-15T08:20:31;101096.28;;;7.60;100.00
23241;BME280;11789;53.482;9.862;2023-04-15T08:22:57;101098.91;;;7.64;100.00
23241;BME280;11789;53.482;9.862;2023-04-15T08:25:22;101099.78;;;7.63;100.00
23241;BME280;11789;53.482;9.862;2023-04-15T08:27:48;101097.22;;;7.65;100.00
23241;BME280;11789;53.482;9.862;2023-04-15T08:30:14;101103.22;;;7.65;100.00
23241;BME280;11789;53.482;9.862;2023-04-15T08:32:45;101092.94;;;7.65;100.00
23241;BME280;11789;53.482;9.862;2023-04-15T08:35:11;101100.69;;;7.67;100.00
23241;BME280;11789;53.482;9.862;2023-04-15T08:37:37;101104.13;;;7.69;100.00
23241;BME280;11789;53.482;9.862;2023-04-15T08:40:03;101100.75;;;7.71;100.00
23241;BME280;11789;53.482;9.862;2023-04-15T08:42:38;101109.34;;;7.72;100.00
23241;BME280;11789;53.482;9.862;2023-04-15T08:45:08;101102.50;;;7.74;100.00
23241;BME280;11789;53.482;9.862;2023-04-15T08:47:36;101105.94;;;7.74;100.00
23241;BME280;11789;53.482;9.862;2023-04-15T08:50:08;101100.84;;;7.77;100.00
23241;BME280;11789;53.482;9.862;2023-04-15T08:52:34;101106.84;;;7.76;100.00
23241;BME280;11789;53.482;9.862;2023-04-15T08:55:01;101102.56;;;7.77;100.00
23241;BME280;11789;53.482;9.862;2023-04-15T08:57:28;101106.84;;;7.78;100.00
23241;BME280;11789;53.482;9.862;2023-04-15T08:59:56;101111.16;;;7.79;100.00
23241;BME280;11789;53.482;9.862;2023-04-15T09:02:23;101114.63;;;7.81;100.00
23241;BME280;11789;53.482;9.862;2023-04-15T09:04:50;101120.66;;;7.83;100.00
23241;BME280;11789;53.482;9.862;2023-04-15T09:07:15;101116.34;;;7.82;100.00
23241;BME280;11789;53.482;9.862;2023-04-15T09:09:42;101116.38;;;7.85;100.00
23241;BME280;11789;53.482;9.862;2023-04-15T09:12:08;101118.16;;;7.89;100.00
23241;BME280;11789;53.482;9.862;2023-04-15T09:14:33;101118.22;;;7.94;100.00
23241;BME280;11789;53.482;9.862;2023-04-15T09:17:01;101124.28;;;7.97;100.00
23241;BME280;11789;53.482;9.862;2023-04-15T09:19:27;101129.44;;;7.99;100.00
23241;BME280;11789;53.482;9.862;2023-04-15T09:21:55;101137.19;;;7.99;100.00
23241;BME280;11789;53.482;9.862;2023-04-15T09:24:22;101139.75;;;7.99;100.00
23241;BME280;11789;53.482;9.862;2023-04-15T09:26:51;101143.22;;;8.01;100.00
23241;BME280;11789;53.482;9.862;2023-04-15T09:29:16;101139.81;;;8.02;100.00
23241;BME280;11789;53.482;9.862;2023-04-15T09:31:45;101132.03;;;8.00;100.00
23241;BME280;11789;53.482;9.862;2023-04-15T09:34:11;101138.97;;;8.03;100.00
23241;BME280;11789;53.482;9.862;2023-04-15T09:39:12;101140.81;;;8.12;100.00
23241;BME280;11789;53.482;9.862;2023-04-15T09:41:38;101139.97;;;8.13;100.00
23241;BME280;11789;53.482;9.862;2023-04-15T09:44:05;101136.59;;;8.18;100.00
23241;BME280;11789;53.482;9.862;2023-04-15T09:46:42;101140.91;;;8.21;100.00
23241;BME280;11789;53.482;9.862;2023-04-15T09:49:09;101128.94;;;8.24;100.00
23241;BME280;11789;53.482;9.862;2023-04-15T09:51:36;101139.34;;;8.32;100.00
23241;BME280;11789;53.482;9.862;2023-04-15T09:54:02;101136.78;;;8.33;100.00
23241;BME280;11789;53.482;9.862;2023-04-15T09:56:35;101135.16;;;8.39;100.00
23241;BME280;11789;53.482;9.862;2023-04-15T09:59:09;101140.41;;;8.45;100.00
23241;BME280;11789;53.482;9.862;2023-04-15T10:01:35;101130.09;;;8.45;100.00
23241;BME280;11789;53.482;9.862;2023-04-15T10:04:05;101148.19;;;8.49;100.00
23241;BME280;11789;53.482;9.862;2023-04-15T10:06:30;101144.88;;;8.58;100.00
23241;BME280;11789;53.482;9.862;2023-04-15T10:08:57;101150.91;;;8.62;100.00
23241;BME280;11789;53.482;9.862;2023-04-15T10:11:23;101149.22;;;8.65;100.00
23241;BME280;11789;53.482;9.862;2023-04-15T10:13:50;101152.75;;;8.72;100.00
23241;BME280;11789;53.482;9.862;2023-04-15T10:16:19;101151.09;;;8.77;100.00
23241;BME280;11789;53.482;9.862;2023-04-15T10:18:54;101152.81;;;8.78;100.00
23241;BME280;11789;53.482;9.862;2023-04-15T10:21:20;101150.31;;;8.84;100.00
23241;BME280;11789;53.482;9.862;2023-04-15T10:23:50;101158.09;;;8.90;100.00
23241;BME280;11789;53.482;9.862;2023-04-15T10:26:16;101164.16;;;8.94;100.00
23241;BME280;11789;53.482;9.862;2023-04-15T10:28:42;101158.22;;;9.01;100.00
23241;BME280;11789;53.482;9.862;2023-04-15T10:31:11;101162.56;;;9.06;100.00
23241;BME280;11789;53.482;9.862;2023-04-15T10:33:38;101162.66;;;9.16;100.00
23241;BME280;11789;53.482;9.862;2023-04-15T10:36:04;101159.37;;;9.30;100.00
23241;BME280;11789;53.482;9.862;2023-04-15T10:38:43;101165.50;;;9.43;100.00
23241;BME280;11789;53.482;9.862;2023-04-15T10:41:22;101171.66;;;9.60;100.00
23241;BME280;11789;53.482;9.862;2023-04-15T10:43:52;101160.62;;;9.78;100.00
23241;BME280;11789;53.482;9.862;2023-04-15T10:46:33;101162.37;;;9.82;100.00
23241;BME280;11789;53.482;9.862;2023-04-15T10:49:07;101169.28;;;9.86;100.00
23241;BME280;11789;53.482;9.862;2023-04-15T10:51:37;101163.19;;;9.77;100.00
23241;BME280;11789;53.482;9.862;2023-04-15T10:54:11;101169.16;;;9.68;100.00
23241;BME280;11789;53.482;9.862;2023-04-15T10:56:37;101163.19;;;9.74;100.00
23241;BME280;11789;53.482;9.862;2023-04-15T10:59:08;101167.53;;;9.79;100.00
23241;BME280;11789;53.482;9.862;2023-04-15T11:01:59;101171.81;;;9.79;100.00
23241;BME280;11789;53.482;9.862;2023-04-15T11:05:05;101166.78;;;9.94;100.00
23241;BME280;11789;53.482;9.862;2023-04-15T11:12:43;101172.91;;;10.16;100.00
23241;BME280;11789;53.482;9.862;2023-04-15T11:18:10;101176.47;;;10.33;100.00
23241;BME280;11789;53.482;9.862;2023-04-15T11:20:42;101175.69;;;10.45;100.00
23241;BME280;11789;53.482;9.862;2023-04-15T11:23:09;101176.59;;;10.58;100.00
23241;BME280;11789;53.482;9.862;2023-04-15T11:25:35;101177.50;;;10.68;100.00
23241;BME280;11789;53.482;9.862;2023-04-15T11:28:03;101176.66;;;10.70;100.00
23241;BME280;11789;53.482;9.862;2023-04-15T11:30:31;101176.69;;;10.78;100.00
23241;BME280;11789;53.482;9.862;2023-04-15T11:33:03;101173.28;;;10.85;100.00
23241;BME280;11789;53.482;9.862;2023-04-15T11:35:29;101178.47;;;10.96;100.00
23241;BME280;11789;53.482;9.862;2023-04-15T11:37:54;101177.62;;;11.01;100.00
23241;BME280;11789;53.482;9.862;2023-04-15T11:40:25;101180.19;;;10.98;100.00
23241;BME280;11789;53.482;9.862;2023-04-15T11:43:10;101182.78;;;10.92;100.00
23241;BME280;11789;53.482;9.862;2023-04-15T11:45:43;101182.75;;;10.86;100.00
23241;BME280;11789;53.482;9.862;2023-04-15T11:48:12;101192.25;;;10.85;100.00
23241;BME280;11789;53.482;9.862;2023-04-15T11:50:38;101193.06;;;10.83;100.00
23241;BME280;11789;53.482;9.862;2023-04-15T11:53:12;101193.94;;;10.80;100.00
23241;BME280;11789;53.482;9.862;2023-04-15T11:55:51;101191.34;;;10.82;100.00
23241;BME280;11789;53.482;9.862;2023-04-15T11:58:22;101195.66;;;10.83;100.00
23241;BME280;11789;53.482;9.862;2023-04-15T12:00:58;101207.75;;;10.87;100.00
23241;BME280;11789;53.482;9.862;2023-04-15T12:03:26;101214.66;;;10.93;100.00
23241;BME280;11789;53.482;9.862;2023-04-15T12:06:15;101214.66;;;10.93;100.00
23241;BME280;11789;53.482;9.862;2023-04-15T12:13:47;101218.16;;;11.02;100.00
23241;BME280;11789;53.482;9.862;2023-04-15T12:16:19;101216.44;;;11.01;100.00
23241;BME280;11789;53.482;9.862;2023-04-15T12:18:46;101218.16;;;11.04;100.00
23241;BME280;11789;53.482;9.862;2023-04-15T12:21:12;101219.03;;;11.07;100.00
23241;BME280;11789;53.482;9.862;2023-04-15T12:23:46;101226.81;;;11.13;99.70
23241;BME280;11789;53.482;9.862;2023-04-15T12:26:12;101220.78;;;11.16;99.04
23241;BME280;11789;53.482;9.862;2023-04-15T12:28:39;101229.41;;;11.23;97.00
23241;BME280;11789;53.482;9.862;2023-04-15T12:31:10;101223.41;;;11.33;95.76
23241;BME280;11789;53.482;9.862;2023-04-15T12:33:36;101227.75;;;11.43;95.30
23241;BME280;11789;53.482;9.862;2023-04-15T12:36:02;101226.03;;;11.51;95.98
23241;BME280;11789;53.482;9.862;2023-04-15T12:38:29;101235.53;;;11.58;95.73
23241;BME280;11789;53.482;9.862;2023-04-15T12:40:55;101237.25;;;11.56;94.06
23241;BME280;11789;53.482;9.862;2023-04-15T12:43:21;101233.78;;;11.50;93.40
23241;BME280;11789;53.482;9.862;2023-04-15T12:45:46;101239.81;;;11.44;94.53
23241;BME280;11789;53.482;9.862;2023-04-15T12:48:12;101232.91;;;11.41;93.99
23241;BME280;11789;53.482;9.862;2023-04-15T12:50:37;101246.72;;;11.36;94.70
23241;BME280;11789;53.482;9.862;2023-04-15T12:53:03;101252.72;;;11.30;94.78
23241;BME280;11789;53.482;9.862;2023-04-15T12:55:31;101253.59;;;11.28;94.55
23241;BME280;11789;53.482;9.862;2023-04-15T12:57:57;101257.91;;;11.27;95.24
23241;BME280;11789;53.482;9.862;2023-04-15T13:00:22;101259.63;;;11.28;93.81
23241;BME280;11789;53.482;9.862;2023-04-15T13:02:48;101263.97;;;11.31;93.78
23241;BME280;11789;53.482;9.862;2023-04-15T13:05:14;101263.06;;;11.30;93.39